createdAt,value
2017-11-24T00:00:37.156Z,2.80
2017-11-24T00:03:05.396Z,2.60
2017-11-24T00:05:32.855Z,3.30
2017-11-24T00:08:00.327Z,2.97
2017-11-24T00:10:27.795Z,2.90
2017-11-24T00:12:55.273Z,2.67
2017-11-24T00:15:23.508Z,2.70
2017-11-24T00:17:50.976Z,2.60
2017-11-24T00:20:18.432Z,2.20
2017-11-24T00:22:46.669Z,3.10
2017-11-24T00:25:14.132Z,2.00
2017-11-24T00:27:41.648Z,2.60
2017-11-24T00:30:09.186Z,2.53
2017-11-24T00:32:36.661Z,3.40
2017-11-24T00:35:04.124Z,2.30
2017-11-24T00:37:32.564Z,2.63
2017-11-24T00:40:00.033Z,2.47
2017-11-24T00:42:27.507Z,2.17
2017-11-24T00:44:54.960Z,2.30
2017-11-24T00:47:22.437Z,2.60
2017-11-24T00:49:49.980Z,2.60
2017-11-24T00:52:17.436Z,2.50
2017-11-24T00:54:44.992Z,2.47
2017-11-24T00:57:12.462Z,2.70
2017-11-24T00:59:41.432Z,2.37
2017-11-24T01:02:08.884Z,2.53
2017-11-24T01:04:36.353Z,2.30
2017-11-24T01:07:03.808Z,1.87
2017-11-24T01:09:31.380Z,2.10
2017-11-24T01:11:58.940Z,2.47
2017-11-24T01:14:26.419Z,4.70
2017-11-24T01:16:53.969Z,2.33
2017-11-24T01:19:22.209Z,2.30
2017-11-24T01:21:49.697Z,2.50
2017-11-24T01:24:17.159Z,2.30
2017-11-24T01:26:44.624Z,2.27
2017-11-24T01:29:12.143Z,2.40
2017-11-24T01:31:39.639Z,2.00
2017-11-24T01:34:07.121Z,3.00
2017-11-24T01:36:35.348Z,2.70
2017-11-24T01:39:02.820Z,2.53
2017-11-24T01:41:30.284Z,2.80
2017-11-24T01:43:57.837Z,3.30
2017-11-24T01:46:25.298Z,3.00
2017-11-24T01:48:52.771Z,3.20
2017-11-24T01:51:21.049Z,3.13
2017-11-24T01:53:48.519Z,2.60
2017-11-24T01:56:16.749Z,3.07
2017-11-24T01:58:44.232Z,4.60
2017-11-24T02:01:11.700Z,3.27
2017-11-24T02:03:39.148Z,3.67
2017-11-24T02:06:06.631Z,2.73
2017-11-24T02:08:34.852Z,2.87
2017-11-24T02:11:02.325Z,2.90
2017-11-24T02:13:29.784Z,2.60
2017-11-24T02:15:57.258Z,2.67
2017-11-24T02:18:24.816Z,3.10
2017-11-24T02:20:52.313Z,2.83
2017-11-24T02:23:20.540Z,2.93
2017-11-24T02:25:47.999Z,3.20
2017-11-24T02:28:15.565Z,2.73
2017-11-24T02:30:43.146Z,3.50
2017-11-24T02:33:10.696Z,2.60
2017-11-24T02:35:38.253Z,2.83
2017-11-24T02:38:05.712Z,2.70
2017-11-24T02:40:33.989Z,3.13
2017-11-24T02:43:02.220Z,3.13
2017-11-24T02:45:29.705Z,3.60
2017-11-24T02:47:57.195Z,3.57
2017-11-24T02:50:24.672Z,3.37
2017-11-24T02:52:52.893Z,2.70
2017-11-24T02:55:20.360Z,3.27
2017-11-24T02:57:47.833Z,3.20
2017-11-24T03:00:15.301Z,3.40
2017-11-24T03:02:42.772Z,3.10
2017-11-24T03:05:11.009Z,3.00
2017-11-24T03:07:38.471Z,4.00
2017-11-24T03:10:05.935Z,4.20
2017-11-24T03:12:33.389Z,3.23
2017-11-24T03:15:00.873Z,3.80
2017-11-24T03:17:28.333Z,2.90
2017-11-24T03:19:56.562Z,3.10
2017-11-24T03:22:24.032Z,3.20
2017-11-24T03:24:51.500Z,2.97
2017-11-24T03:27:18.965Z,3.43
2017-11-24T03:29:46.428Z,4.20
2017-11-24T03:32:13.896Z,4.10
2017-11-24T03:34:42.128Z,2.80
2017-11-24T03:37:11.825Z,3.20
2017-11-24T03:39:39.276Z,3.67
2017-11-24T03:42:06.746Z,2.73
2017-11-24T03:44:34.214Z,4.10
2017-11-24T03:47:01.728Z,3.70
2017-11-24T03:49:29.949Z,3.77
2017-11-24T03:51:57.424Z,4.83
2017-11-24T03:54:24.888Z,3.73
2017-11-24T03:56:52.370Z,3.80
2017-11-24T03:59:19.823Z,4.03
2017-11-24T04:01:47.303Z,3.60
2017-11-24T04:04:15.536Z,3.70
2017-11-24T04:06:42.997Z,4.07
2017-11-24T04:09:10.464Z,3.20
2017-11-24T04:11:37.928Z,4.57
2017-11-24T04:14:05.434Z,4.13
2017-11-24T04:16:32.895Z,3.77
2017-11-24T04:19:00.352Z,3.53
2017-11-24T04:21:27.857Z,3.00
2017-11-24T04:23:55.316Z,2.80
2017-11-24T04:26:22.811Z,2.70
2017-11-24T04:28:51.034Z,2.90
2017-11-24T04:31:18.494Z,4.07
2017-11-24T04:33:45.973Z,3.40
2017-11-24T04:36:13.432Z,3.17
2017-11-24T04:38:40.909Z,3.60
2017-11-24T04:41:09.141Z,3.27
2017-11-24T04:43:36.609Z,3.13
2017-11-24T04:46:04.073Z,3.13
2017-11-24T04:48:31.545Z,2.80
2017-11-24T04:50:59.000Z,3.07
2017-11-24T04:53:26.481Z,3.27
2017-11-24T04:55:54.710Z,3.23
2017-11-24T04:58:22.184Z,4.63
2017-11-24T05:00:49.648Z,3.30
2017-11-24T05:03:17.112Z,2.57
2017-11-24T05:05:45.343Z,2.97
2017-11-24T05:08:12.815Z,3.13
2017-11-24T05:10:41.048Z,2.80
2017-11-24T05:13:08.518Z,2.87
2017-11-24T05:15:35.977Z,3.30
2017-11-24T05:18:03.450Z,2.87
2017-11-24T05:20:30.934Z,3.53
2017-11-24T05:22:58.413Z,2.87
2017-11-24T05:25:25.877Z,2.30
2017-11-24T05:27:53.347Z,2.87
2017-11-24T05:30:21.579Z,2.30
2017-11-24T05:32:49.057Z,2.33
2017-11-24T05:35:16.524Z,2.80
2017-11-24T05:37:43.998Z,2.87
2017-11-24T05:40:12.231Z,2.57
2017-11-24T05:42:39.691Z,2.80
2017-11-24T05:45:13.225Z,2.67
2017-11-24T05:47:41.443Z,4.03
2017-11-24T05:50:08.922Z,3.50
2017-11-24T05:52:36.389Z,3.20
2017-11-24T05:55:03.853Z,3.53
2017-11-24T05:57:31.316Z,3.20
2017-11-24T05:59:58.794Z,3.27
2017-11-24T06:02:27.038Z,3.80
2017-11-24T06:04:54.500Z,3.67
2017-11-24T06:07:21.968Z,3.97
2017-11-24T06:09:49.432Z,3.83
2017-11-24T06:12:16.887Z,3.87
2017-11-24T06:14:44.368Z,4.40
2017-11-24T06:17:12.600Z,4.10
2017-11-24T06:19:40.074Z,4.70
2017-11-24T06:22:07.534Z,5.07
2017-11-24T06:24:35.016Z,3.73
2017-11-24T06:27:03.250Z,4.03
2017-11-24T06:29:31.496Z,6.80
2017-11-24T06:31:58.960Z,8.33
2017-11-24T06:34:26.446Z,7.50
2017-11-24T06:36:53.924Z,7.07
2017-11-24T06:39:21.396Z,7.40
2017-11-24T06:41:49.640Z,6.20
2017-11-24T06:44:17.105Z,5.43
2017-11-24T06:46:45.337Z,5.47
2017-11-24T06:49:12.816Z,4.93
2017-11-24T06:51:40.276Z,5.03
2017-11-24T06:54:07.748Z,4.90
2017-11-24T06:56:35.218Z,4.27
2017-11-24T06:59:02.684Z,4.10
2017-11-24T07:01:30.153Z,3.70
2017-11-24T07:03:58.394Z,4.10
2017-11-24T07:06:25.862Z,4.47
2017-11-24T07:08:53.340Z,4.33
2017-11-24T07:11:20.797Z,4.17
2017-11-24T07:13:48.261Z,3.80
2017-11-24T07:16:16.610Z,4.40
2017-11-24T07:18:44.841Z,4.50
2017-11-24T07:21:12.310Z,4.90
2017-11-24T07:23:39.777Z,5.30
2017-11-24T07:26:07.267Z,5.20
2017-11-24T07:28:34.718Z,5.53
2017-11-24T07:31:02.284Z,5.03
2017-11-24T07:33:29.853Z,5.43
2017-11-24T07:35:57.321Z,5.67
2017-11-24T07:38:25.570Z,5.83
2017-11-24T07:40:53.050Z,5.00
2017-11-24T07:43:20.609Z,5.07
2017-11-24T07:45:48.088Z,4.33
2017-11-24T07:48:16.351Z,5.47
2017-11-24T07:50:43.817Z,5.43
2017-11-24T07:53:12.058Z,5.03
2017-11-24T07:55:39.525Z,4.57
2017-11-24T07:58:06.988Z,4.60
2017-11-24T08:00:34.480Z,4.80
2017-11-24T08:03:02.723Z,4.97
2017-11-24T08:05:30.198Z,5.23
2017-11-24T08:07:57.666Z,5.00
2017-11-24T08:10:25.892Z,4.30
2017-11-24T08:12:53.357Z,4.67
2017-11-24T08:15:20.832Z,5.57
2017-11-24T08:17:48.292Z,4.47
2017-11-24T08:20:15.754Z,5.13
2017-11-24T08:22:43.227Z,5.17
2017-11-24T08:25:11.456Z,4.90
2017-11-24T08:27:38.929Z,4.13
2017-11-24T08:30:06.405Z,3.87
2017-11-24T08:32:33.889Z,4.97
2017-11-24T08:35:02.117Z,4.63
2017-11-24T08:37:29.583Z,4.27
2017-11-24T08:39:57.049Z,4.80
2017-11-24T08:42:24.521Z,4.50
2017-11-24T08:44:51.980Z,5.47
2017-11-24T08:47:25.259Z,4.47
2017-11-24T08:49:52.729Z,5.13
2017-11-24T08:52:20.192Z,4.60
2017-11-24T08:54:47.653Z,5.53
2017-11-24T08:57:15.125Z,4.30
2017-11-24T08:59:43.362Z,4.87
2017-11-24T09:02:10.838Z,4.40
2017-11-24T09:04:38.292Z,3.80
2017-11-24T09:07:05.771Z,2.37
2017-11-24T09:09:34.004Z,2.10
2017-11-24T09:12:01.490Z,2.07
2017-11-24T09:14:28.956Z,1.83
2017-11-24T09:16:56.444Z,2.33
2017-11-24T09:19:24.664Z,1.23
2017-11-24T09:21:52.144Z,0.90
2017-11-24T09:24:19.612Z,1.50
2017-11-24T09:26:47.100Z,1.43
2017-11-24T09:29:14.572Z,1.33
2017-11-24T09:31:42.037Z,1.20
2017-11-24T09:34:09.515Z,1.50
2017-11-24T09:36:36.973Z,1.70
2017-11-24T09:39:04.440Z,1.00
2017-11-24T09:41:31.903Z,1.37
2017-11-24T09:43:59.554Z,1.67
2017-11-24T09:46:27.797Z,1.93
2017-11-24T09:48:55.277Z,1.60
2017-11-24T09:51:22.768Z,2.17
2017-11-24T09:53:50.233Z,1.60
2017-11-24T09:56:18.460Z,1.80
2017-11-24T09:58:45.935Z,2.30
2017-11-24T10:01:13.406Z,2.17
2017-11-24T10:03:40.885Z,1.80
2017-11-24T10:06:09.140Z,2.20
2017-11-24T10:08:36.773Z,1.90
2017-11-24T10:11:04.325Z,2.30
2017-11-24T10:13:31.982Z,1.90
2017-11-24T10:15:59.489Z,1.83
2017-11-24T10:18:28.786Z,2.40
2017-11-24T10:21:01.987Z,2.10
2017-11-24T10:23:29.536Z,2.73
2017-11-24T10:25:57.091Z,2.20
2017-11-24T10:28:24.669Z,1.93
2017-11-24T10:30:52.140Z,1.60
2017-11-24T10:33:19.611Z,1.40
2017-11-24T10:35:47.863Z,1.60
2017-11-24T10:38:15.407Z,1.27
2017-11-24T10:43:37.258Z,1.30
2017-11-24T10:46:06.041Z,2.27
2017-11-24T10:48:33.544Z,1.50
2017-11-24T10:51:01.068Z,1.47
2017-11-24T10:53:29.316Z,1.77
2017-11-24T10:55:56.809Z,1.57
2017-11-24T10:58:24.364Z,1.50
2017-11-24T11:00:53.333Z,1.70
2017-11-24T11:03:20.799Z,1.70
2017-11-24T11:05:48.260Z,2.10
2017-11-24T11:08:15.725Z,1.87
2017-11-24T11:10:43.199Z,2.00
2017-11-24T11:13:11.468Z,3.10
2017-11-24T11:15:39.033Z,2.50
2017-11-24T11:18:06.582Z,2.13
2017-11-24T11:20:34.053Z,2.10
2017-11-24T11:23:01.621Z,2.27
2017-11-24T11:25:29.857Z,2.20
2017-11-24T11:27:57.500Z,1.70
2017-11-24T11:30:25.009Z,2.07
2017-11-24T11:32:53.989Z,1.63
2017-11-24T11:35:21.458Z,1.90
2017-11-24T11:37:49.018Z,1.83
2017-11-24T11:40:16.479Z,1.30
2017-11-24T11:42:44.705Z,1.60
2017-11-24T11:45:12.178Z,1.80
2017-11-24T11:47:39.651Z,1.10
2017-11-24T11:50:07.169Z,1.10
2017-11-24T11:52:34.683Z,1.20
2017-11-24T11:55:02.153Z,1.37
2017-11-24T11:57:29.613Z,1.60
2017-11-24T11:59:57.087Z,1.37
2017-11-24T12:02:25.311Z,1.70
2017-11-24T12:04:52.780Z,1.37
2017-11-24T12:07:20.237Z,1.50
2017-11-24T12:09:47.722Z,1.80
2017-11-24T12:12:15.264Z,1.80
2017-11-24T12:14:42.829Z,2.00
2017-11-24T12:17:11.818Z,1.83
2017-11-24T12:19:39.292Z,2.47
2017-11-24T12:22:06.912Z,3.17
2017-11-24T12:24:34.380Z,3.00
2017-11-24T12:27:01.845Z,2.50
2017-11-24T12:29:29.361Z,2.90
2017-11-24T12:31:56.884Z,3.40
2017-11-24T12:34:25.103Z,4.40
2017-11-24T12:36:52.616Z,4.03
2017-11-24T12:39:20.175Z,2.40
2017-11-24T12:41:47.647Z,2.97
2017-11-24T12:44:15.114Z,3.47
2017-11-24T12:46:43.353Z,3.60
2017-11-24T12:49:10.810Z,4.67
2017-11-24T12:51:38.283Z,4.13
2017-11-24T12:54:06.524Z,4.00
2017-11-24T12:56:34.009Z,2.97
2017-11-24T12:59:01.489Z,3.10
2017-11-24T13:01:28.965Z,2.93
2017-11-24T13:03:57.206Z,3.43
2017-11-24T13:06:24.682Z,3.37
2017-11-24T13:08:52.149Z,3.40
2017-11-24T13:11:20.407Z,3.27
2017-11-24T13:13:48.646Z,4.00
2017-11-24T13:16:16.127Z,3.10
2017-11-24T13:18:43.597Z,3.80
2017-11-24T13:21:11.079Z,3.60
2017-11-24T13:23:39.300Z,3.07
2017-11-24T13:26:06.795Z,3.50
2017-11-24T13:28:34.269Z,4.13
2017-11-24T13:31:02.557Z,5.70
2017-11-24T13:33:30.050Z,5.13
2017-11-24T13:35:57.543Z,9.30
2017-11-24T13:38:25.012Z,6.67
2017-11-24T13:40:52.472Z,3.70
2017-11-24T13:43:21.456Z,3.70
2017-11-24T13:45:49.013Z,3.80
2017-11-24T13:48:16.496Z,3.77
2017-11-24T13:50:44.823Z,3.37
2017-11-24T13:53:12.287Z,4.27
2017-11-24T13:55:39.755Z,4.60
2017-11-24T13:58:07.338Z,3.73
2017-11-24T14:00:34.796Z,4.03
2017-11-24T14:03:02.277Z,4.30
2017-11-24T14:05:30.521Z,4.50
2017-11-24T14:07:58.081Z,4.77
2017-11-24T14:10:25.580Z,4.47
2017-11-24T14:12:53.108Z,4.77
2017-11-24T14:15:20.565Z,4.47
2017-11-24T14:17:48.038Z,4.30
2017-11-24T14:20:16.296Z,4.67
2017-11-24T14:22:44.534Z,4.70
2017-11-24T14:25:11.999Z,5.33
2017-11-24T14:27:39.465Z,6.53
2017-11-24T14:30:06.927Z,5.47
2017-11-24T14:32:34.414Z,4.80
2017-11-24T14:35:02.651Z,5.00
2017-11-24T14:37:30.146Z,4.57
2017-11-24T14:39:57.701Z,4.77
2017-11-24T14:42:25.160Z,5.07
2017-11-24T14:44:52.709Z,6.10
2017-11-24T14:47:20.163Z,6.60
2017-11-24T14:49:47.726Z,6.80
2017-11-24T14:52:15.186Z,6.70
2017-11-24T14:54:42.654Z,6.87
2017-11-24T14:57:11.627Z,7.80
2017-11-24T14:59:39.102Z,7.20
2017-11-24T15:02:06.666Z,7.37
2017-11-24T15:04:34.154Z,7.93
2017-11-24T15:07:02.399Z,7.83
2017-11-24T15:09:29.881Z,8.10
2017-11-24T15:11:58.829Z,7.80
2017-11-24T15:14:26.298Z,7.30
2017-11-24T15:16:53.762Z,7.50
2017-11-24T15:19:21.243Z,8.00
2017-11-24T15:21:49.496Z,6.80
2017-11-24T15:24:17.060Z,8.30
2017-11-24T15:26:44.617Z,10.17
2017-11-24T15:29:14.289Z,8.83
2017-11-24T15:31:41.769Z,9.40
2017-11-24T15:34:09.255Z,8.80
2017-11-24T15:36:37.527Z,9.97
2017-11-24T15:39:05.005Z,8.93
2017-11-24T15:41:33.233Z,10.37
2017-11-24T15:44:00.727Z,11.30
2017-11-24T15:46:28.274Z,10.40
2017-11-24T15:48:55.735Z,9.37
2017-11-24T15:51:23.300Z,10.70
2017-11-24T15:53:50.794Z,11.90
2017-11-24T15:56:18.318Z,10.37
2017-11-24T15:58:46.554Z,11.00
2017-11-24T16:01:14.024Z,11.80
2017-11-24T16:03:41.489Z,10.67
2017-11-24T16:06:08.968Z,9.90
2017-11-24T16:08:36.421Z,10.27
2017-11-24T16:11:03.894Z,8.83
2017-11-24T16:13:32.136Z,9.27
2017-11-24T16:15:59.605Z,8.80
2017-11-24T16:18:27.108Z,7.00
2017-11-24T16:20:54.639Z,7.43
2017-11-24T16:23:22.897Z,8.00
2017-11-24T16:25:50.467Z,6.77
2017-11-24T16:28:17.937Z,6.67
2017-11-24T16:30:45.499Z,8.97
2017-11-24T16:33:12.986Z,7.83
2017-11-24T16:35:41.217Z,8.53
2017-11-24T16:38:08.692Z,7.97
2017-11-24T16:40:36.168Z,8.53
2017-11-24T16:43:04.398Z,8.17
2017-11-24T16:45:32.016Z,8.93
2017-11-24T16:48:00.244Z,9.93
2017-11-24T16:50:27.732Z,9.30
2017-11-24T16:52:55.968Z,11.50
2017-11-24T16:55:23.437Z,12.00
2017-11-24T16:57:50.904Z,12.13
2017-11-24T17:00:18.382Z,11.93
2017-11-24T17:02:46.624Z,11.70
2017-11-24T17:05:14.102Z,11.67
2017-11-24T17:07:41.572Z,12.80
2017-11-24T17:10:09.814Z,12.33
2017-11-24T17:12:37.272Z,11.90
2017-11-24T17:15:04.751Z,11.93
2017-11-24T17:17:32.312Z,13.23
2017-11-24T17:20:00.581Z,13.17
2017-11-24T17:22:28.048Z,12.40
2017-11-24T17:24:57.022Z,12.70
2017-11-24T17:27:24.501Z,12.00
2017-11-24T17:29:52.051Z,11.90
2017-11-24T17:32:19.636Z,11.30
2017-11-24T17:34:47.852Z,12.90
2017-11-24T17:37:15.377Z,11.23
2017-11-24T17:39:43.612Z,11.30
2017-11-24T17:42:11.094Z,11.30
2017-11-24T17:44:39.728Z,11.27
2017-11-24T17:47:07.193Z,12.33
2017-11-24T17:49:34.697Z,11.70
2017-11-24T17:52:02.512Z,12.37
2017-11-24T17:54:29.986Z,12.07
2017-11-24T17:56:57.462Z,11.00
2017-11-24T17:59:24.933Z,11.90
2017-11-24T18:01:53.219Z,12.40
2017-11-24T18:04:20.694Z,16.80
2017-11-24T18:06:48.943Z,16.83
2017-11-24T18:09:16.440Z,18.97
2017-11-24T18:11:43.934Z,21.07
2017-11-24T18:14:11.429Z,20.13
2017-11-24T18:16:38.906Z,15.97
2017-11-24T18:19:07.147Z,16.00
2017-11-24T18:21:34.639Z,15.50
2017-11-24T18:24:02.869Z,16.57
2017-11-24T18:26:30.343Z,16.63
2017-11-24T18:28:57.833Z,18.70
2017-11-24T18:31:26.083Z,16.97
2017-11-24T18:33:53.576Z,14.40
2017-11-24T18:36:21.826Z,16.00
2017-11-24T18:38:50.896Z,15.57
2017-11-24T18:41:18.736Z,13.60
2017-11-24T18:43:46.220Z,14.83
2017-11-24T18:46:13.820Z,16.03
2017-11-24T18:48:41.309Z,15.80
2017-11-24T18:51:08.788Z,15.13
2017-11-24T18:53:36.260Z,15.87
2017-11-24T18:56:03.755Z,14.33
2017-11-24T18:58:32.001Z,14.80
2017-11-24T19:00:59.482Z,14.13
2017-11-24T19:03:26.970Z,14.60
2017-11-24T19:05:54.472Z,15.43
2017-11-24T19:08:21.952Z,15.63
2017-11-24T19:10:49.437Z,15.20
2017-11-24T19:13:17.680Z,15.90
2017-11-24T19:15:45.158Z,13.27
2017-11-24T19:18:13.415Z,13.37
2017-11-24T19:20:40.994Z,13.60
2017-11-24T19:23:09.268Z,13.23
2017-11-24T19:25:36.739Z,13.20
2017-11-24T19:28:04.985Z,13.10
2017-11-24T19:30:32.448Z,13.10
2017-11-24T19:33:01.479Z,12.30
2017-11-24T19:35:29.013Z,13.10
2017-11-24T19:37:56.495Z,12.50
2017-11-24T19:40:23.970Z,12.60
2017-11-24T19:42:51.483Z,11.30
2017-11-24T19:45:20.473Z,12.37
2017-11-24T19:47:49.452Z,11.37
2017-11-24T19:50:16.944Z,12.10
2017-11-24T19:52:45.213Z,10.97
2017-11-24T19:58:05.473Z,11.57
2017-11-24T20:00:32.986Z,10.20
2017-11-24T20:03:01.240Z,12.40
2017-11-24T20:05:28.734Z,16.00
2017-11-24T20:07:56.996Z,17.53
2017-11-24T20:10:25.255Z,20.77
2017-11-24T20:12:52.742Z,18.83
2017-11-24T20:15:20.989Z,16.03
2017-11-24T20:18:05.112Z,14.73
2017-11-24T20:20:32.616Z,14.80
2017-11-24T20:23:00.877Z,15.23
2017-11-24T20:25:28.365Z,15.60
2017-11-24T20:27:56.605Z,15.13
2017-11-24T20:30:24.089Z,11.97
2017-11-24T20:32:53.130Z,11.80
2017-11-24T20:35:20.596Z,13.37
2017-11-24T20:37:48.119Z,12.23
2017-11-24T20:40:16.393Z,16.70
2017-11-24T20:42:44.760Z,14.43
2017-11-24T20:45:13.042Z,12.73
2017-11-24T20:47:41.292Z,13.97
2017-11-24T20:50:08.857Z,13.70
2017-11-24T20:52:37.164Z,14.80
2017-11-24T20:55:05.421Z,12.60
2017-11-24T20:57:33.675Z,14.00
2017-11-24T21:00:01.254Z,16.20
2017-11-24T21:02:28.724Z,14.60
2017-11-24T21:04:56.975Z,15.47
2017-11-24T21:07:24.450Z,14.30
2017-11-24T21:09:51.938Z,15.23
2017-11-24T21:12:19.411Z,12.87
2017-11-24T21:14:46.936Z,14.03
2017-11-24T21:17:15.202Z,13.60
2017-11-24T21:19:43.486Z,16.47
2017-11-24T21:22:10.954Z,14.20
2017-11-24T21:24:39.205Z,14.60
2017-11-24T21:27:07.441Z,15.23
2017-11-24T21:29:34.922Z,16.93
2017-11-24T21:32:02.515Z,16.77
2017-11-24T21:34:30.752Z,15.10
2017-11-24T21:36:58.245Z,15.87
2017-11-24T21:39:25.817Z,15.80
2017-11-24T21:41:54.062Z,15.93
2017-11-24T21:44:21.648Z,14.60
2017-11-24T21:46:49.128Z,15.27
2017-11-24T21:49:16.597Z,13.50
2017-11-24T21:51:44.101Z,12.67
2017-11-24T21:54:11.568Z,14.73
2017-11-24T21:56:39.134Z,15.37
2017-11-24T21:59:06.604Z,14.77
2017-11-24T22:01:34.093Z,13.43
2017-11-24T22:04:01.585Z,13.93
2017-11-24T22:06:29.164Z,13.50
2017-11-24T22:08:58.151Z,13.50
2017-11-24T22:11:26.412Z,13.30
2017-11-24T22:13:53.899Z,11.13
2017-11-24T22:16:22.165Z,12.00
2017-11-24T22:18:49.647Z,12.43
2017-11-24T22:21:17.901Z,12.73
2017-11-24T22:23:45.385Z,13.10
2017-11-24T22:26:12.874Z,11.67
2017-11-24T22:28:40.365Z,12.40
2017-11-24T22:31:07.851Z,12.20
2017-11-24T22:33:36.100Z,12.37
2017-11-24T22:36:03.590Z,13.30
2017-11-24T22:38:31.859Z,11.57
2017-11-24T22:40:59.331Z,13.87
2017-11-24T22:43:27.573Z,12.57
2017-11-24T22:45:55.045Z,12.73
2017-11-24T22:48:22.533Z,12.60
2017-11-24T22:50:50.796Z,16.60
2017-11-24T22:53:19.042Z,14.67
2017-11-24T22:55:46.521Z,12.27
2017-11-24T22:58:14.779Z,12.43
2017-11-24T23:00:42.253Z,12.83
2017-11-24T23:03:09.741Z,12.57
2017-11-24T23:05:37.216Z,12.40
2017-11-24T23:08:04.732Z,10.90
2017-11-24T23:10:32.304Z,12.10
2017-11-24T23:13:00.554Z,11.90
2017-11-24T23:15:28.036Z,13.13
2017-11-24T23:17:56.298Z,11.50
2017-11-24T23:20:23.782Z,12.40
2017-11-24T23:22:52.032Z,11.60
2017-11-24T23:25:19.488Z,11.70
2017-11-24T23:27:46.961Z,12.23
2017-11-24T23:30:15.211Z,11.87
2017-11-24T23:32:42.693Z,10.53
2017-11-24T23:35:10.946Z,11.77
2017-11-24T23:37:38.457Z,12.50
2017-11-24T23:40:05.938Z,11.23
2017-11-24T23:42:33.462Z,11.47
2017-11-24T23:45:01.717Z,12.40
2017-11-24T23:47:29.967Z,12.40
2017-11-24T23:49:57.485Z,12.10
2017-11-24T23:52:25.047Z,13.30
2017-11-24T23:54:52.520Z,12.50
2017-11-24T23:57:20.011Z,12.97
2017-11-24T23:59:47.484Z,13.60
